Sierra-at-tahoe, California
Current Conditions -  °F | °C
As of 9:53 PM on Friday 24 Oct 2014 (Local Time) from KTVL Reporting Station
Clear Clear  
Wind Chill: 57°   Ceiling: Unl
Heat Index: 57°   Visibility: 10mi
Dew Point: 16°   Wind: 9mph
Humidity: 20%   Direction: 190°S
Pressure: 30.08"   Gusts: NA
Location:  38.77°N, 120.16°W
Report Text: KTVL 250453Z AUTO 19008KT 10SM CLR 14/M09 A3008 RMK AO2 SLP129 T01391089
Loading
Personal Weather Stations






























Interactive Weather Map
Tropical Storm Tracking
New forecast layout! Learn more

10-Day Weather Forecast

Advertisements
Track Severe Weather on mobile